sensor_id;sensor_type;location;lat;lon;timestamp;pressure;altitude;pressure_sealevel;temperature;humidity
42067;BME280;27734;47.028;28.820;2022-09-17T00:02:03;99442.61;;;19.79;68.53
42067;BME280;27734;47.028;28.820;2022-09-17T00:04:35;99431.98;;;19.76;69.45
42067;BME280;27734;47.028;28.820;2022-09-17T00:07:06;99436.41;;;19.75;69.17
42067;BME280;27734;47.028;28.820;2022-09-17T00:09:38;99425.81;;;19.72;69.34
42067;BME280;27734;47.028;28.820;2022-09-17T00:12:09;99425.84;;;19.71;69.95
42067;BME280;27734;47.028;28.820;2022-09-17T00:14:42;99426.83;;;19.67;69.75
42067;BME280;27734;47.028;28.820;2022-09-17T00:17:13;99434.90;;;19.62;69.98
42067;BME280;27734;47.028;28.820;2022-09-17T00:19:44;99430.50;;;19.60;70.58
42067;BME280;27734;47.028;28.820;2022-09-17T00:22:15;99417.23;;;19.58;70.51
42067;BME280;27734;47.028;28.820;2022-09-17T00:24:46;99411.91;;;19.58;70.42
42067;BME280;27734;47.028;28.820;2022-09-17T00:27:17;99417.23;;;19.58;71.11
42067;BME280;27734;47.028;28.820;2022-09-17T00:29:49;99418.99;;;19.59;70.68
42067;BME280;27734;47.028;28.820;2022-09-17T00:32:23;99418.99;;;19.59;71.30
42067;BME280;27734;47.028;28.820;2022-09-17T00:34:55;99418.09;;;19.58;71.36
42067;BME280;27734;47.028;28.820;2022-09-17T00:37:26;99414.56;;;19.58;70.99
42067;BME280;27734;47.028;28.820;2022-09-17T00:39:57;99406.55;;;19.60;70.90
42067;BME280;27734;47.028;28.820;2022-09-17T00:42:28;99403.89;;;19.60;71.46
42067;BME280;27734;47.028;28.820;2022-09-17T00:45:00;99408.32;;;19.61;71.38
42067;BME280;27734;47.028;28.820;2022-09-17T00:47:32;99403.00;;;19.61;71.63
42067;BME280;27734;47.028;28.820;2022-09-17T00:50:08;99401.20;;;19.61;71.47
42067;BME280;27734;47.028;28.820;2022-09-17T00:52:42;99400.31;;;19.62;71.86
42067;BME280;27734;47.028;28.820;2022-09-17T00:55:18;99401.20;;;19.61;72.01
42067;BME280;27734;47.028;28.820;2022-09-17T00:57:53;99398.57;;;19.60;72.32
42067;BME280;27734;47.028;28.820;2022-09-17T01:00:23;99396.80;;;19.58;72.10
42067;BME280;27734;47.028;28.820;2022-09-17T01:02:56;99396.83;;;19.57;71.84
42067;BME280;27734;47.028;28.820;2022-09-17T01:05:33;99402.16;;;19.57;72.35
42067;BME280;27734;47.028;28.820;2022-09-17T01:08:17;99396.83;;;19.57;72.49
42067;BME280;27734;47.028;28.820;2022-09-17T01:11:14;99393.30;;;19.56;71.98
42067;BME280;27734;47.028;28.820;2022-09-17T01:13:59;99390.67;;;19.55;72.81
42067;BME280;27734;47.028;28.820;2022-09-17T01:16:39;99388.97;;;19.51;73.19
42067;BME280;27734;47.028;28.820;2022-09-17T01:19:47;99397.88;;;19.50;72.54
42067;BME280;27734;47.028;28.820;2022-09-17T01:22:26;99396.11;;;19.49;73.43
42067;BME280;27734;47.028;28.820;2022-09-17T01:25:17;99404.06;;;19.50;73.29
42067;BME280;27734;47.028;28.820;2022-09-17T01:28:18;99396.11;;;19.49;73.12
42067;BME280;27734;47.028;28.820;2022-09-17T01:31:27;99397.06;;;19.46;73.77
42067;BME280;27734;47.028;28.820;2022-09-17T01:34:10;99401.48;;;19.46;73.83
42067;BME280;27734;47.028;28.820;2022-09-17T01:36:58;99397.98;;;19.44;73.35
42067;BME280;27734;47.028;28.820;2022-09-17T01:39:41;99397.14;;;19.42;73.86
42067;BME280;27734;47.028;28.820;2022-09-17T01:42:18;99401.56;;;19.41;74.04
42067;BME280;27734;47.028;28.820;2022-09-17T01:44:58;99399.91;;;19.35;73.76
42067;BME280;27734;47.028;28.820;2022-09-17T01:47:38;99395.65;;;19.25;74.49
42067;BME280;27734;47.028;28.820;2022-09-17T01:50:13;99398.33;;;19.24;74.01
42067;BME280;27734;47.028;28.820;2022-09-17T01:52:49;99397.41;;;19.26;74.48
42067;BME280;27734;47.028;28.820;2022-09-17T01:55:24;99405.34;;;19.29;74.41
42067;BME280;27734;47.028;28.820;2022-09-17T01:58:01;99393.86;;;19.26;74.71
42067;BME280;27734;47.028;28.820;2022-09-17T02:00:37;99404.67;;;19.15;74.92
42067;BME280;27734;47.028;28.820;2022-09-17T02:03:15;99418.12;;;19.06;74.50
42067;BME280;27734;47.028;28.820;2022-09-17T02:05:51;99415.48;;;19.04;75.25
42067;BME280;27734;47.028;28.820;2022-09-17T02:08:27;99407.48;;;19.06;75.50
42067;BME280;27734;47.028;28.820;2022-09-17T02:11:03;99409.25;;;19.07;75.76
42067;BME280;27734;47.028;28.820;2022-09-17T02:13:41;99423.51;;;19.01;75.76
42067;BME280;27734;47.028;28.820;2022-09-17T02:16:15;99408.60;;;18.92;75.40
42067;BME280;27734;47.028;28.820;2022-09-17T02:18:52;99396.25;;;18.88;76.41
42067;BME280;27734;47.028;28.820;2022-09-17T02:21:30;99403.36;;;18.88;76.36
42067;BME280;27734;47.028;28.820;2022-09-17T02:24:13;99399.83;;;18.87;76.09
42067;BME280;27734;47.028;28.820;2022-09-17T02:26:53;99404.23;;;18.88;75.90
42067;BME280;27734;47.028;28.820;2022-09-17T02:29:30;99408.71;;;18.83;76.88
42067;BME280;27734;47.028;28.820;2022-09-17T02:32:02;99408.80;;;18.77;76.75
42067;BME280;27734;47.028;28.820;2022-09-17T02:34:34;99407.11;;;18.71;76.47
42067;BME280;27734;47.028;28.820;2022-09-17T02:37:06;99409.88;;;18.63;76.50
42067;BME280;27734;47.028;28.820;2022-09-17T02:39:39;99406.33;;;18.64;76.96
42067;BME280;27734;47.028;28.820;2022-09-17T02:42:20;99408.08;;;18.67;77.01
42067;BME280;27734;47.028;28.820;2022-09-17T02:44:59;99404.47;;;18.69;76.94
42067;BME280;27734;47.028;28.820;2022-09-17T02:47:49;99405.34;;;18.72;77.48
42067;BME280;27734;47.028;28.820;2022-09-17T02:50:37;99398.34;;;18.66;77.34
42067;BME280;27734;47.028;28.820;2022-09-17T02:53:22;99405.50;;;18.61;77.50
42067;BME280;27734;47.028;28.820;2022-09-17T02:56:09;99406.37;;;18.61;77.59
42067;BME280;27734;47.028;28.820;2022-09-17T02:58:49;99400.17;;;18.62;77.77
42067;BME280;27734;47.028;28.820;2022-09-17T03:01:27;99403.73;;;18.60;77.61
42067;BME280;27734;47.028;28.820;2022-09-17T03:04:02;99391.39;;;18.56;77.79
42067;BME280;27734;47.028;28.820;2022-09-17T03:06:35;99404.72;;;18.53;78.12
42067;BME280;27734;47.028;28.820;2022-09-17T03:09:07;99399.38;;;18.54;78.38
42067;BME280;27734;47.028;28.820;2022-09-17T03:11:38;99397.67;;;18.52;78.34
42067;BME280;27734;47.028;28.820;2022-09-17T03:14:09;99393.20;;;18.54;78.79
42067;BME280;27734;47.028;28.820;2022-09-17T03:16:40;99389.67;;;18.53;78.50
42067;BME280;27734;47.028;28.820;2022-09-17T03:19:11;99381.80;;;18.47;78.32
42067;BME280;27734;47.028;28.820;2022-09-17T03:21:42;99382.66;;;18.47;78.53
42067;BME280;27734;47.028;28.820;2022-09-17T03:24:13;99378.22;;;18.48;78.39
42067;BME280;27734;47.028;28.820;2022-09-17T03:26:44;99375.58;;;18.46;78.29
42067;BME280;27734;47.028;28.820;2022-09-17T03:29:18;99378.26;;;18.45;78.65
42067;BME280;27734;47.028;28.820;2022-09-17T03:31:49;99374.72;;;18.46;79.15
42067;BME280;27734;47.028;28.820;2022-09-17T03:34:20;99377.34;;;18.47;79.32
42067;BME280;27734;47.028;28.820;2022-09-17T03:36:52;99376.44;;;18.50;79.35
42067;BME280;27734;47.028;28.820;2022-09-17T03:39:29;99377.30;;;18.50;79.26
42067;BME280;27734;47.028;28.820;2022-09-17T03:42:00;99379.14;;;18.47;79.31
42067;BME280;27734;47.028;28.820;2022-09-17T03:44:32;99374.73;;;18.44;79.58
42067;BME280;27734;47.028;28.820;2022-09-17T03:47:06;99384.53;;;18.41;79.08
42067;BME280;27734;47.028;28.820;2022-09-17T03:49:37;99367.76;;;18.39;79.49
42067;BME280;27734;47.028;28.820;2022-09-17T03:52:09;99370.34;;;18.43;80.22
42067;BME280;27734;47.028;28.820;2022-09-17T03:54:41;99365.91;;;18.44;79.69
42067;BME280;27734;47.028;28.820;2022-09-17T03:57:13;99366.75;;;18.46;79.42
42067;BME280;27734;47.028;28.820;2022-09-17T03:59:44;99362.38;;;18.43;80.40
42067;BME280;27734;47.028;28.820;2022-09-17T04:02:21;99362.41;;;18.42;80.36
42067;BME280;27734;47.028;28.820;2022-09-17T04:04:55;99360.63;;;18.41;80.30
42067;BME280;27734;47.028;28.820;2022-09-17T04:07:26;99365.99;;;18.38;80.31
42067;BME280;27734;47.028;28.820;2022-09-17T04:09:57;99370.44;;;18.37;80.29
42067;BME280;27734;47.028;28.820;2022-09-17T04:12:28;99373.06;;;18.39;80.25
42067;BME280;27734;47.028;28.820;2022-09-17T04:15:02;99363.34;;;18.38;80.61
42067;BME280;27734;47.028;28.820;2022-09-17T04:17:34;99355.37;;;18.38;80.83
42067;BME280;27734;47.028;28.820;2022-09-17T04:20:06;99347.38;;;18.39;80.72
42067;BME280;27734;47.028;28.820;2022-09-17T04:22:41;99342.05;;;18.41;80.54
42067;BME280;27734;47.028;28.820;2022-09-17T04:25:28;99337.60;;;18.41;81.26
42067;BME280;27734;47.028;28.820;2022-09-17T04:27:59;99335.84;;;18.42;81.51
42067;BME280;27734;47.028;28.820;2022-09-17T04:30:31;99336.73;;;18.41;81.95
42067;BME280;27734;47.028;28.820;2022-09-17T04:33:02;99338.55;;;18.39;81.65
42067;BME280;27734;47.028;28.820;2022-09-17T04:35:33;99327.00;;;18.40;81.66
42067;BME280;27734;47.028;28.820;2022-09-17T04:38:05;99325.14;;;18.45;81.45
42067;BME280;27734;47.028;28.820;2022-09-17T04:40:36;99325.09;;;18.48;81.29
42067;BME280;27734;47.028;28.820;2022-09-17T04:43:10;99333.09;;;18.46;81.63
42067;BME280;27734;47.028;28.820;2022-09-17T04:45:43;99333.98;;;18.47;81.75
42067;BME280;27734;47.028;28.820;2022-09-17T04:48:15;99331.31;;;18.48;81.74
42067;BME280;27734;47.028;28.820;2022-09-17T04:50:46;99327.73;;;18.49;81.88
42067;BME280;27734;47.028;28.820;2022-09-17T04:53:19;99327.70;;;18.51;81.85
42067;BME280;27734;47.028;28.820;2022-09-17T04:55:50;99318.00;;;18.50;81.72
42067;BME280;27734;47.028;28.820;2022-09-17T04:58:22;99321.55;;;18.49;81.65
42067;BME280;27734;47.028;28.820;2022-09-17T05:00:53;99318.94;;;18.46;81.73
42067;BME280;27734;47.028;28.820;2022-09-17T05:03:24;99316.26;;;18.47;81.81
42067;BME280;27734;47.028;28.820;2022-09-17T05:05:59;99315.34;;;18.50;81.90
42067;BME280;27734;47.028;28.820;2022-09-17T05:08:30;99318.00;;;18.50;81.86
42067;BME280;27734;47.028;28.820;2022-09-17T05:11:01;99308.24;;;18.50;81.98
42067;BME280;27734;47.028;28.820;2022-09-17T05:13:32;99303.75;;;18.54;82.27
42067;BME280;27734;47.028;28.820;2022-09-17T05:16:04;99311.67;;;18.57;81.98
42067;BME280;27734;47.028;28.820;2022-09-17T05:18:35;99305.37;;;18.64;82.51
42067;BME280;27734;47.028;28.820;2022-09-17T05:21:07;99295.53;;;18.69;82.35
42067;BME280;27734;47.028;28.820;2022-09-17T05:23:42;99294.56;;;18.75;82.50
42067;BME280;27734;47.028;28.820;2022-09-17T05:26:15;99296.25;;;18.81;82.69
42067;BME280;27734;47.028;28.820;2022-09-17T05:28:46;99296.18;;;18.87;82.48
42067;BME280;27734;47.028;28.820;2022-09-17T05:31:19;99289.86;;;18.93;82.51
42067;BME280;27734;47.028;28.820;2022-09-17T05:33:51;99289.72;;;19.00;82.42
42067;BME280;27734;47.028;28.820;2022-09-17T05:36:22;99292.38;;;19.00;82.69
42067;BME280;27734;47.028;28.820;2022-09-17T05:38:54;99294.09;;;19.04;83.25
42067;BME280;27734;47.028;28.820;2022-09-17T05:41:25;99294.96;;;19.05;82.76
42067;BME280;27734;47.028;28.820;2022-09-17T05:43:56;99301.20;;;19.02;82.56
42067;BME280;27734;47.028;28.820;2022-09-17T05:46:27;99297.75;;;18.97;83.36
42067;BME280;27734;47.028;28.820;2022-09-17T05:48:58;99288.12;;;18.92;83.51
42067;BME280;27734;47.028;28.820;2022-09-17T05:51:30;99296.08;;;18.93;83.34
42067;BME280;27734;47.028;28.820;2022-09-17T05:54:01;99299.57;;;18.95;82.75
42067;BME280;27734;47.028;28.820;2022-09-17T05:56:32;99301.30;;;18.96;83.21
42067;BME280;27734;47.028;28.820;2022-09-17T05:59:03;99289.81;;;18.96;83.30
42067;BME280;27734;47.028;28.820;2022-09-17T06:01:35;99282.70;;;18.96;83.13
42067;BME280;27734;47.028;28.820;2022-09-17T06:04:07;99281.80;;;18.97;83.35
42067;BME280;27734;47.028;28.820;2022-09-17T06:06:39;99282.70;;;18.96;83.75
42067;BME280;27734;47.028;28.820;2022-09-17T06:09:10;99284.44;;;18.99;83.26
42067;BME280;27734;47.028;28.820;2022-09-17T06:11:41;99279.15;;;18.97;83.51
42067;BME280;27734;47.028;28.820;2022-09-17T06:14:13;99280.04;;;18.96;83.62
42067;BME280;27734;47.028;28.820;2022-09-17T06:16:44;99282.70;;;18.96;83.97
42067;BME280;27734;47.028;28.820;2022-09-17T06:19:16;99279.95;;;19.01;83.48
42067;BME280;27734;47.028;28.820;2022-09-17T06:21:53;99284.37;;;19.02;83.77
42067;BME280;27734;47.028;28.820;2022-09-17T06:24:24;99294.15;;;19.01;83.51
42067;BME280;27734;47.028;28.820;2022-09-17T06:26:55;99291.46;;;19.03;83.62
42067;BME280;27734;47.028;28.820;2022-09-17T06:29:27;99284.37;;;19.02;83.28
42067;BME280;27734;47.028;28.820;2022-09-17T06:31:58;99284.37;;;19.02;84.02
42067;BME280;27734;47.028;28.820;2022-09-17T06:34:31;99283.48;;;19.03;83.73
42067;BME280;27734;47.028;28.820;2022-09-17T06:37:02;99280.74;;;19.08;83.74
42067;BME280;27734;47.028;28.820;2022-09-17T06:39:34;99274.36;;;19.16;84.32
42067;BME280;27734;47.028;28.820;2022-09-17T06:42:06;99270.63;;;19.27;84.29
42067;BME280;27734;47.028;28.820;2022-09-17T06:44:37;99271.38;;;19.33;84.27
42067;BME280;27734;47.028;28.820;2022-09-17T06:47:09;99273.91;;;19.39;84.49
42067;BME280;27734;47.028;28.820;2022-09-17T06:49:40;99278.19;;;19.48;84.53
42067;BME280;27734;47.028;28.820;2022-09-17T06:52:13;99277.13;;;19.55;84.38
42067;BME280;27734;47.028;28.820;2022-09-17T06:54:44;99276.14;;;19.61;84.03
42067;BME280;27734;47.028;28.820;2022-09-17T06:57:15;99277.04;;;19.60;84.39
42067;BME280;27734;47.028;28.820;2022-09-17T06:59:46;99276.78;;;19.72;84.26
42067;BME280;27734;47.028;28.820;2022-09-17T07:02:18;99291.83;;;19.75;84.14
42067;BME280;27734;47.028;28.820;2022-09-17T07:04:50;99298.02;;;19.75;83.95
42067;BME280;27734;47.028;28.820;2022-09-17T07:07:21;99299.84;;;19.73;84.56
42067;BME280;27734;47.028;28.820;2022-09-17T07:09:52;99308.72;;;19.72;84.15
42067;BME280;27734;47.028;28.820;2022-09-17T07:12:23;99304.42;;;19.67;83.54
42067;BME280;27734;47.028;28.820;2022-09-17T07:14:54;99301.80;;;19.65;84.00
42067;BME280;27734;47.028;28.820;2022-09-17T07:17:25;99309.74;;;19.67;84.09
42067;BME280;27734;47.028;28.820;2022-09-17T07:19:59;99309.80;;;19.64;83.62
42067;BME280;27734;47.028;28.820;2022-09-17T07:22:30;99313.36;;;19.63;84.36
42067;BME280;27734;47.028;28.820;2022-09-17T07:25:01;99305.29;;;19.67;83.97
42067;BME280;27734;47.028;28.820;2022-09-17T07:27:32;99301.70;;;19.70;83.86
42067;BME280;27734;47.028;28.820;2022-09-17T07:30:05;99295.51;;;19.68;84.55
42067;BME280;27734;47.028;28.820;2022-09-17T07:32:36;99298.11;;;19.71;84.17
42067;BME280;27734;47.028;28.820;2022-09-17T07:35:08;99298.91;;;19.78;84.25
42067;BME280;27734;47.028;28.820;2022-09-17T07:37:39;99296.19;;;19.81;84.17
42067;BME280;27734;47.028;28.820;2022-09-17T07:40:11;99298.66;;;19.90;84.31
42067;BME280;27734;47.028;28.820;2022-09-17T07:42:42;99301.28;;;19.91;84.44
42067;BME280;27734;47.028;28.820;2022-09-17T07:45:13;99298.52;;;19.96;83.74
42067;BME280;27734;47.028;28.820;2022-09-17T07:47:44;99301.02;;;20.02;84.59
42067;BME280;27734;47.028;28.820;2022-09-17T07:50:16;99294.72;;;20.06;84.03
42067;BME280;27734;47.028;28.820;2022-09-17T07:52:48;99294.72;;;20.06;83.73
42067;BME280;27734;47.028;28.820;2022-09-17T07:55:19;99288.43;;;20.10;84.40
42067;BME280;27734;47.028;28.820;2022-09-17T07:57:53;99287.46;;;20.13;82.82
42067;BME280;27734;47.028;28.820;2022-09-17T08:00:24;99280.47;;;20.09;83.52
42067;BME280;27734;47.028;28.820;2022-09-17T08:02:56;99287.53;;;20.10;83.24
42067;BME280;27734;47.028;28.820;2022-09-17T08:05:27;99275.08;;;20.12;83.61
42067;BME280;27734;47.028;28.820;2022-09-17T08:07:58;99278.54;;;20.16;83.85
42067;BME280;27734;47.028;28.820;2022-09-17T08:10:30;99286.59;;;20.13;83.38
42067;BME280;27734;47.028;28.820;2022-09-17T08:13:01;99290.16;;;20.11;83.20
42067;BME280;27734;47.028;28.820;2022-09-17T08:15:32;99286.63;;;20.11;83.49
42067;BME280;27734;47.028;28.820;2022-09-17T08:18:03;99284.91;;;20.08;83.73
42067;BME280;27734;47.028;28.820;2022-09-17T08:20:34;99289.39;;;20.06;83.15
42067;BME280;27734;47.028;28.820;2022-09-17T08:23:05;99284.04;;;20.08;82.52
42067;BME280;27734;47.028;28.820;2022-09-17T08:25:37;99283.23;;;20.04;82.61
42067;BME280;27734;47.028;28.820;2022-09-17T08:28:08;99283.23;;;20.04;83.30
42067;BME280;27734;47.028;28.820;2022-09-17T08:30:39;99282.20;;;20.10;82.64
42067;BME280;27734;47.028;28.820;2022-09-17T08:33:10;99292.72;;;20.16;83.57
42067;BME280;27734;47.028;28.820;2022-09-17T08:35:41;99284.70;;;20.18;82.55
42067;BME280;27734;47.028;28.820;2022-09-17T08:38:12;99282.00;;;20.19;82.81
42067;BME280;27734;47.028;28.820;2022-09-17T08:40:59;99273.83;;;20.27;83.27
42067;BME280;27734;47.028;28.820;2022-09-17T08:43:35;99269.29;;;20.32;82.59
42067;BME280;27734;47.028;28.820;2022-09-17T08:46:10;99272.78;;;20.34;82.37
42067;BME280;27734;47.028;28.820;2022-09-17T08:48:44;99266.52;;;20.37;82.72
42067;BME280;27734;47.028;28.820;2022-09-17T08:51:26;99265.59;;;20.38;82.04
42067;BME280;27734;47.028;28.820;2022-09-17T08:54:06;99251.36;;;20.39;82.21
42067;BME280;27734;47.028;28.820;2022-09-17T08:56:42;99251.21;;;20.45;82.58
42067;BME280;27734;47.028;28.820;2022-09-17T08:59:22;99244.87;;;20.51;82.27
42067;BME280;27734;47.028;28.820;2022-09-17T09:02:00;99232.33;;;20.54;83.16
42067;BME280;27734;47.028;28.820;2022-09-17T09:04:57;99221.48;;;20.62;82.48
42067;BME280;27734;47.028;28.820;2022-09-17T09:07:33;99207.21;;;20.64;81.61
42067;BME280;27734;47.028;28.820;2022-09-17T09:10:14;99207.02;;;20.72;82.60
42067;BME280;27734;47.028;28.820;2022-09-17T09:12:47;99218.45;;;20.77;81.52
42067;BME280;27734;47.028;28.820;2022-09-17T09:15:26;99224.77;;;20.73;81.81
42067;BME280;27734;47.028;28.820;2022-09-17T09:18:04;99237.19;;;20.74;82.25
42067;BME280;27734;47.028;28.820;2022-09-17T09:20:44;99242.36;;;20.80;81.66
42067;BME280;27734;47.028;28.820;2022-09-17T09:23:23;99241.30;;;20.86;82.38
42067;BME280;27734;47.028;28.820;2022-09-17T09:26:02;99235.84;;;20.91;82.44
42067;BME280;27734;47.028;28.820;2022-09-17T09:28:48;99233.22;;;20.89;81.48
42067;BME280;27734;47.028;28.820;2022-09-17T09:31:26;99238.52;;;20.91;81.66
42067;BME280;27734;47.028;28.820;2022-09-17T09:34:02;99239.33;;;20.94;81.55
42067;BME280;27734;47.028;28.820;2022-09-17T09:36:35;99241.95;;;20.96;81.99
42067;BME280;27734;47.028;28.820;2022-09-17T09:39:14;99241.95;;;20.96;81.45
42067;BME280;27734;47.028;28.820;2022-09-17T09:41:49;99234.78;;;20.98;81.06
42067;BME280;27734;47.028;28.820;2022-09-17T09:44:25;99226.66;;;21.03;81.47
42067;BME280;27734;47.028;28.820;2022-09-17T09:47:15;99219.48;;;21.05;81.50
42067;BME280;27734;47.028;28.820;2022-09-17T09:50:04;99211.44;;;21.06;80.78
42067;BME280;27734;47.028;28.820;2022-09-17T09:52:50;99205.16;;;21.09;80.78
42067;BME280;27734;47.028;28.820;2022-09-17T09:55:38;99203.13;;;21.17;80.52
42067;BME280;27734;47.028;28.820;2022-09-17T09:58:29;99189.48;;;21.28;81.03
42067;BME280;27734;47.028;28.820;2022-09-17T10:01:01;99194.56;;;21.37;81.06
42067;BME280;27734;47.028;28.820;2022-09-17T10:03:34;99197.91;;;21.44;81.06
42067;BME280;27734;47.028;28.820;2022-09-17T10:06:10;99186.13;;;21.52;80.85
42067;BME280;27734;47.028;28.820;2022-09-17T10:09:07;99186.95;;;21.54;80.56
42067;BME280;27734;47.028;28.820;2022-09-17T10:11:34;99211.82;;;21.57;80.01
42067;BME280;27734;47.028;28.820;2022-09-17T10:14:22;99216.13;;;21.61;80.23
42067;BME280;27734;47.028;28.820;2022-09-17T10:17:13;99219.70;;;21.60;80.19
42067;BME280;27734;47.028;28.820;2022-09-17T10:19:46;99205.59;;;21.56;79.89
42067;BME280;27734;47.028;28.820;2022-09-17T10:22:24;99192.37;;;21.51;79.62
42067;BME280;27734;47.028;28.820;2022-09-17T10:24:58;99183.70;;;21.43;80.06
42067;BME280;27734;47.028;28.820;2022-09-17T10:27:30;99196.23;;;21.41;80.18
42067;BME280;27734;47.028;28.820;2022-09-17T10:30:14;99194.52;;;21.39;80.05
42067;BME280;27734;47.028;28.820;2022-09-17T10:33:17;99201.66;;;21.38;80.07
42067;BME280;27734;47.028;28.820;2022-09-17T10:35:58;99195.52;;;21.34;79.98
42067;BME280;27734;47.028;28.820;2022-09-17T10:38:34;99198.31;;;21.30;79.65
42067;BME280;27734;47.028;28.820;2022-09-17T10:41:14;99201.16;;;21.24;79.06
42067;BME280;27734;47.028;28.820;2022-09-17T10:43:46;99201.33;;;21.17;78.94
42067;BME280;27734;47.028;28.820;2022-09-17T10:46:21;99202.36;;;21.13;79.41
42067;BME280;27734;47.028;28.820;2022-09-17T10:49:07;99209.42;;;21.14;80.41
42067;BME280;27734;47.028;28.820;2022-09-17T10:51:40;99211.34;;;21.09;80.43
42067;BME280;27734;47.028;28.820;2022-09-17T10:57:27;99218.98;;;20.90;79.42
42067;BME280;27734;47.028;28.820;2022-09-17T11:00:13;99215.54;;;20.87;79.46
42067;BME280;27734;47.028;28.820;2022-09-17T11:03:20;99215.63;;;20.83;79.85
42067;BME280;27734;47.028;28.820;2022-09-17T11:09:13;99225.42;;;20.81;79.70
42067;BME280;27734;47.028;28.820;2022-09-17T11:11:57;99226.33;;;20.82;79.44
42067;BME280;27734;47.028;28.820;2022-09-17T11:14:44;99226.28;;;20.83;79.79
42067;BME280;27734;47.028;28.820;2022-09-17T11:17:34;99221.08;;;20.79;79.28
42067;BME280;27734;47.028;28.820;2022-09-17T11:20:21;99222.92;;;20.75;79.29
42067;BME280;27734;47.028;28.820;2022-09-17T11:23:12;99221.27;;;20.71;80.08
42067;BME280;27734;47.028;28.820;2022-09-17T11:25:51;99216.02;;;20.68;80.12
42067;BME280;27734;47.028;28.820;2022-09-17T11:28:38;99216.89;;;20.69;79.88
42067;BME280;27734;47.028;28.820;2022-09-17T11:31:26;99221.20;;;20.74;80.82
42067;BME280;27734;47.028;28.820;2022-09-17T11:37:08;99215.78;;;20.77;79.49
42067;BME280;27734;47.028;28.820;2022-09-17T11:39:44;99212.22;;;20.77;80.81
42067;BME280;27734;47.028;28.820;2022-09-17T11:42:20;99211.36;;;20.76;80.36
42067;BME280;27734;47.028;28.820;2022-09-17T11:44:55;99205.91;;;20.81;80.28
42067;BME280;27734;47.028;28.820;2022-09-17T11:47:31;99205.82;;;20.84;80.72
42067;BME280;27734;47.028;28.820;2022-09-17T11:50:10;99202.41;;;20.79;80.31
42067;BME280;27734;47.028;28.820;2022-09-17T11:52:56;99205.41;;;20.67;80.34
42067;BME280;27734;47.028;28.820;2022-09-17T11:55:34;99212.62;;;20.60;80.91
42067;BME280;27734;47.028;28.820;2022-09-17T11:58:13;99207.38;;;20.57;80.97
42067;BME280;27734;47.028;28.820;2022-09-17T12:00:51;99208.31;;;20.56;81.75
42067;BME280;27734;47.028;28.820;2022-09-17T12:03:29;99209.17;;;20.56;81.84
42067;BME280;27734;47.028;28.820;2022-09-17T12:06:06;99218.14;;;20.54;82.19
42067;BME280;27734;47.028;28.820;2022-09-17T12:08:43;99224.57;;;20.45;81.43
42067;BME280;27734;47.028;28.820;2022-09-17T12:11:20;99247.05;;;20.33;81.45
42067;BME280;27734;47.028;28.820;2022-09-17T12:13:56;99261.66;;;20.17;81.25
42067;BME280;27734;47.028;28.820;2022-09-17T12:16:34;99259.38;;;20.00;81.88
42067;BME280;27734;47.028;28.820;2022-09-17T12:19:13;99241.13;;;19.83;82.24
42067;BME280;27734;47.028;28.820;2022-09-17T12:21:50;99220.13;;;19.67;82.88
42067;BME280;27734;47.028;28.820;2022-09-17T12:24:25;99207.16;;;19.52;81.87
42067;BME280;27734;47.028;28.820;2022-09-17T12:27:07;99196.75;;;19.41;82.46
42067;BME280;27734;47.028;28.820;2022-09-17T12:30:09;99197.71;;;19.38;83.12
42067;BME280;27734;47.028;28.820;2022-09-17T12:33:01;99192.39;;;19.38;82.68
42067;BME280;27734;47.028;28.820;2022-09-17T12:39:00;99179.13;;;19.37;83.06
42067;BME280;27734;47.028;28.820;2022-09-17T12:41:42;99172.94;;;19.35;83.58
42067;BME280;27734;47.028;28.820;2022-09-17T12:44:27;99160.54;;;19.35;83.44
42067;BME280;27734;47.028;28.820;2022-09-17T12:47:17;99154.32;;;19.35;84.29
42067;BME280;27734;47.028;28.820;2022-09-17T12:50:06;99160.60;;;19.32;84.69
42067;BME280;27734;47.028;28.820;2022-09-17T12:53:01;99157.97;;;19.31;83.88
42067;BME280;27734;47.028;28.820;2022-09-17T12:55:48;99166.85;;;19.30;84.18
42067;BME280;27734;47.028;28.820;2022-09-17T12:58:38;99174.80;;;19.31;85.29
42067;BME280;27734;47.028;28.820;2022-09-17T13:01:16;99184.60;;;19.29;85.11
42067;BME280;27734;47.028;28.820;2022-09-17T13:03:52;99183.80;;;19.24;85.16
42067;BME280;27734;47.028;28.820;2022-09-17T13:06:47;99182.06;;;19.23;84.87
42067;BME280;27734;47.028;28.820;2022-09-17T13:12:57;99158.17;;;19.21;85.67
42067;BME280;27734;47.028;28.820;2022-09-17T13:15:41;99166.05;;;19.26;85.85
42067;BME280;27734;47.028;28.820;2022-09-17T13:18:19;99164.19;;;19.30;85.50
42067;BME280;27734;47.028;28.820;2022-09-17T13:21:01;99169.48;;;19.31;85.81
42067;BME280;27734;47.028;28.820;2022-09-17T13:23:37;99171.30;;;19.29;86.10
42067;BME280;27734;47.028;28.820;2022-09-17T13:26:10;99170.44;;;19.27;85.92
42067;BME280;27734;47.028;28.820;2022-09-17T13:28:46;99165.19;;;19.24;86.55
42067;BME280;27734;47.028;28.820;2022-09-17T13:31:22;99160.03;;;19.16;85.68
42067;BME280;27734;47.028;28.820;2022-09-17T13:37:20;99162.00;;;19.07;86.27
42067;BME280;27734;47.028;28.820;2022-09-17T13:39:53;99166.55;;;19.01;85.94
42067;BME280;27734;47.028;28.820;2022-09-17T13:42:26;99169.27;;;18.98;86.63
42067;BME280;27734;47.028;28.820;2022-09-17T13:45:07;99162.22;;;18.96;86.36
42067;BME280;27734;47.028;28.820;2022-09-17T13:47:49;99153.38;;;18.95;86.73
42067;BME280;27734;47.028;28.820;2022-09-17T13:50:30;99144.48;;;18.96;86.73
42067;BME280;27734;47.028;28.820;2022-09-17T13:53:07;99135.58;;;18.99;87.25
42067;BME280;27734;47.028;28.820;2022-09-17T13:55:46;99132.89;;;19.00;87.18
42067;BME280;27734;47.028;28.820;2022-09-17T13:58:27;99129.37;;;19.00;86.80